sensor_id;sensor_type;location;lat;lon;timestamp;temperature;humidity
32839;DHT22;19182;41.820;12.808;2023-02-11T00:00:41;2.20;99.90
32839;DHT22;19182;41.820;12.808;2023-02-11T00:03:07;2.10;99.90
32839;DHT22;19182;41.820;12.808;2023-02-11T00:05:33;2.10;99.90
32839;DHT22;19182;41.820;12.808;2023-02-11T00:12:51;2.30;99.90
32839;DHT22;19182;41.820;12.808;2023-02-11T00:15:16;2.30;99.90
32839;DHT22;19182;41.820;12.808;2023-02-11T00:17:42;2.30;99.90
32839;DHT22;19182;41.820;12.808;2023-02-11T00:20:08;2.40;99.90
32839;DHT22;19182;41.820;12.808;2023-02-11T00:25:00;2.40;99.90
32839;DHT22;19182;41.820;12.808;2023-02-11T00:27:26;2.30;99.90
32839;DHT22;19182;41.820;12.808;2023-02-11T00:29:52;2.30;99.90
32839;DHT22;19182;41.820;12.808;2023-02-11T00:32:17;2.40;99.90
32839;DHT22;19182;41.820;12.808;2023-02-11T00:39:39;2.30;99.90
32839;DHT22;19182;41.820;12.808;2023-02-11T00:42:05;2.30;99.90
32839;DHT22;19182;41.820;12.808;2023-02-11T00:44:30;2.30;99.90
32839;DHT22;19182;41.820;12.808;2023-02-11T00:46:59;2.20;99.90
32839;DHT22;19182;41.820;12.808;2023-02-11T00:49:25;2.50;99.90
32839;DHT22;19182;41.820;12.808;2023-02-11T00:51:51;2.30;99.90
32839;DHT22;19182;41.820;12.808;2023-02-11T00:54:16;2.30;99.90
32839;DHT22;19182;41.820;12.808;2023-02-11T00:56:42;2.30;99.90
32839;DHT22;19182;41.820;12.808;2023-02-11T00:59:08;2.20;99.90
32839;DHT22;19182;41.820;12.808;2023-02-11T01:01:33;2.30;99.90
32839;DHT22;19182;41.820;12.808;2023-02-11T01:03:59;2.20;99.90
32839;DHT22;19182;41.820;12.808;2023-02-11T01:06:26;2.10;99.90
32839;DHT22;19182;41.820;12.808;2023-02-11T01:11:22;2.20;99.90
32839;DHT22;19182;41.820;12.808;2023-02-11T01:13:49;2.20;99.90
32839;DHT22;19182;41.820;12.808;2023-02-11T01:16:18;2.30;99.90
32839;DHT22;19182;41.820;12.808;2023-02-11T01:18:44;2.40;99.90
32839;DHT22;19182;41.820;12.808;2023-02-11T01:21:11;2.40;99.90
32839;DHT22;19182;41.820;12.808;2023-02-11T01:23:37;2.30;99.90
32839;DHT22;19182;41.820;12.808;2023-02-11T01:26:03;2.20;99.90
32839;DHT22;19182;41.820;12.808;2023-02-11T01:28:29;2.40;99.90
32839;DHT22;19182;41.820;12.808;2023-02-11T01:33:22;2.50;99.90
32839;DHT22;19182;41.820;12.808;2023-02-11T01:35:48;2.50;99.90
32839;DHT22;19182;41.820;12.808;2023-02-11T01:38:24;2.50;99.90
32839;DHT22;19182;41.820;12.808;2023-02-11T01:40:53;2.50;99.90
32839;DHT22;19182;41.820;12.808;2023-02-11T01:43:21;2.50;99.90
32839;DHT22;19182;41.820;12.808;2023-02-11T01:48:35;2.50;99.90
32839;DHT22;19182;41.820;12.808;2023-02-11T01:51:13;2.50;99.90
32839;DHT22;19182;41.820;12.808;2023-02-11T01:53:41;2.50;99.90
32839;DHT22;19182;41.820;12.808;2023-02-11T01:56:30;2.30;99.90
32839;DHT22;19182;41.820;12.808;2023-02-11T01:59:40;2.30;99.90
32839;DHT22;19182;41.820;12.808;2023-02-11T02:02:10;2.30;99.90
32839;DHT22;19182;41.820;12.808;2023-02-11T02:04:52;2.30;99.90
32839;DHT22;19182;41.820;12.808;2023-02-11T02:07:33;2.30;99.90
32839;DHT22;19182;41.820;12.808;2023-02-11T02:10:06;2.20;99.90
32839;DHT22;19182;41.820;12.808;2023-02-11T02:12:34;2.10;99.90
32839;DHT22;19182;41.820;12.808;2023-02-11T02:15:20;2.10;99.90
32839;DHT22;19182;41.820;12.808;2023-02-11T02:20:51;2.10;99.90
32839;DHT22;19182;41.820;12.808;2023-02-11T02:32:49;2.20;99.90
32839;DHT22;19182;41.820;12.808;2023-02-11T02:40:28;2.00;99.90
32839;DHT22;19182;41.820;12.808;2023-02-11T02:42:56;2.00;99.90
32839;DHT22;19182;41.820;12.808;2023-02-11T02:47:49;2.00;99.90
32839;DHT22;19182;41.820;12.808;2023-02-11T02:50:16;1.90;99.90
32839;DHT22;19182;41.820;12.808;2023-02-11T02:53:30;2.10;99.90
32839;DHT22;19182;41.820;12.808;2023-02-11T03:04:17;2.10;99.90
32839;DHT22;19182;41.820;12.808;2023-02-11T03:06:51;2.00;99.90
32839;DHT22;19182;41.820;12.808;2023-02-11T03:11:55;2.00;99.90
32839;DHT22;19182;41.820;12.808;2023-02-11T03:14:25;3.00;99.90
32839;DHT22;19182;41.820;12.808;2023-02-11T03:16:53;2.00;99.90
32839;DHT22;19182;41.820;12.808;2023-02-11T03:19:27;2.70;99.90
32839;DHT22;19182;41.820;12.808;2023-02-11T03:21:54;2.10;99.90
32839;DHT22;19182;41.820;12.808;2023-02-11T03:24:28;2.00;99.90
32839;DHT22;19182;41.820;12.808;2023-02-11T03:26:58;2.10;99.90
32839;DHT22;19182;41.820;12.808;2023-02-11T03:32:30;1.90;99.90
32839;DHT22;19182;41.820;12.808;2023-02-11T03:35:06;1.90;99.90
32839;DHT22;19182;41.820;12.808;2023-02-11T03:40:25;1.80;99.90
32839;DHT22;19182;41.820;12.808;2023-02-11T03:45:37;1.80;99.90
32839;DHT22;19182;41.820;12.808;2023-02-11T03:48:08;1.70;99.90
32839;DHT22;19182;41.820;12.808;2023-02-11T03:50:38;1.60;99.90
32839;DHT22;19182;41.820;12.808;2023-02-11T03:53:05;1.70;99.90
32839;DHT22;19182;41.820;12.808;2023-02-11T03:55:35;1.50;99.90
32839;DHT22;19182;41.820;12.808;2023-02-11T03:58:04;1.60;99.90
32839;DHT22;19182;41.820;12.808;2023-02-11T04:00:33;3.30;99.90
32839;DHT22;19182;41.820;12.808;2023-02-11T04:02:59;1.20;99.90
32839;DHT22;19182;41.820;12.808;2023-02-11T04:07:51;1.20;99.90
32839;DHT22;19182;41.820;12.808;2023-02-11T04:12:47;3.00;99.90
32839;DHT22;19182;41.820;12.808;2023-02-11T04:15:13;1.10;99.90
32839;DHT22;19182;41.820;12.808;2023-02-11T04:17:38;1.00;99.90
32839;DHT22;19182;41.820;12.808;2023-02-11T04:20:05;0.90;99.90
32839;DHT22;19182;41.820;12.808;2023-02-11T04:22:31;0.90;99.90
32839;DHT22;19182;41.820;12.808;2023-02-11T04:24:57;0.60;99.90
32839;DHT22;19182;41.820;12.808;2023-02-11T04:27:24;0.60;99.90
32839;DHT22;19182;41.820;12.808;2023-02-11T04:29:49;0.60;99.90
32839;DHT22;19182;41.820;12.808;2023-02-11T04:32:16;0.40;99.90
32839;DHT22;19182;41.820;12.808;2023-02-11T04:37:08;0.50;99.90
32839;DHT22;19182;41.820;12.808;2023-02-11T04:39:34;0.60;99.90
32839;DHT22;19182;41.820;12.808;2023-02-11T04:42:00;0.70;99.90
32839;DHT22;19182;41.820;12.808;2023-02-11T04:44:26;0.70;99.90
32839;DHT22;19182;41.820;12.808;2023-02-11T04:49:18;0.70;99.90
32839;DHT22;19182;41.820;12.808;2023-02-11T04:51:44;0.40;99.90
32839;DHT22;19182;41.820;12.808;2023-02-11T04:54:10;0.60;99.90
32839;DHT22;19182;41.820;12.808;2023-02-11T04:56:36;3.70;99.90
32839;DHT22;19182;41.820;12.808;2023-02-11T04:59:03;0.50;99.90
32839;DHT22;19182;41.820;12.808;2023-02-11T05:01:29;0.40;99.90
32839;DHT22;19182;41.820;12.808;2023-02-11T05:03:55;0.50;99.90
32839;DHT22;19182;41.820;12.808;2023-02-11T05:06:21;0.30;99.90
32839;DHT22;19182;41.820;12.808;2023-02-11T05:11:19;0.50;99.90
32839;DHT22;19182;41.820;12.808;2023-02-11T05:18:39;0.50;99.90
32839;DHT22;19182;41.820;12.808;2023-02-11T05:21:06;0.60;99.90
32839;DHT22;19182;41.820;12.808;2023-02-11T05:23:32;0.50;99.90
32839;DHT22;19182;41.820;12.808;2023-02-11T05:25:59;0.20;99.90
32839;DHT22;19182;41.820;12.808;2023-02-11T05:28:25;0.10;99.90
32839;DHT22;19182;41.820;12.808;2023-02-11T05:30:51;0.10;99.90
32839;DHT22;19182;41.820;12.808;2023-02-11T05:33:17;-0.10;99.90
32839;DHT22;19182;41.820;12.808;2023-02-11T05:35:42;0.20;99.90
32839;DHT22;19182;41.820;12.808;2023-02-11T05:38:08;2.70;99.90
32839;DHT22;19182;41.820;12.808;2023-02-11T05:43:00;0.40;99.90
32839;DHT22;19182;41.820;12.808;2023-02-11T05:47:53;0.40;99.90
32839;DHT22;19182;41.820;12.808;2023-02-11T05:50:18;0.40;99.90
32839;DHT22;19182;41.820;12.808;2023-02-11T05:52:44;0.30;99.90
32839;DHT22;19182;41.820;12.808;2023-02-11T06:00:04;0.10;99.90
32839;DHT22;19182;41.820;12.808;2023-02-11T06:02:30;0.00;99.90
32839;DHT22;19182;41.820;12.808;2023-02-11T06:04:58;0.10;99.90
32839;DHT22;19182;41.820;12.808;2023-02-11T06:09:50;0.00;99.90
32839;DHT22;19182;41.820;12.808;2023-02-11T06:12:16;-0.10;99.90
32839;DHT22;19182;41.820;12.808;2023-02-11T06:14:44;0.10;99.90
32839;DHT22;19182;41.820;12.808;2023-02-11T06:17:11;0.20;99.90
32839;DHT22;19182;41.820;12.808;2023-02-11T06:19:37;0.30;99.90
32839;DHT22;19182;41.820;12.808;2023-02-11T06:22:03;0.20;99.90
32839;DHT22;19182;41.820;12.808;2023-02-11T06:29:23;0.20;99.90
32839;DHT22;19182;41.820;12.808;2023-02-11T06:31:49;0.20;99.90
32839;DHT22;19182;41.820;12.808;2023-02-11T06:36:41;0.30;99.90
32839;DHT22;19182;41.820;12.808;2023-02-11T06:39:11;0.20;99.90
32839;DHT22;19182;41.820;12.808;2023-02-11T06:41:37;0.20;99.90
32839;DHT22;19182;41.820;12.808;2023-02-11T06:44:03;0.20;99.90
32839;DHT22;19182;41.820;12.808;2023-02-11T06:46:29;0.10;99.90
32839;DHT22;19182;41.820;12.808;2023-02-11T06:51:23;0.30;99.90
32839;DHT22;19182;41.820;12.808;2023-02-11T06:53:49;0.40;99.90
32839;DHT22;19182;41.820;12.808;2023-02-11T06:56:18;0.50;99.90
32839;DHT22;19182;41.820;12.808;2023-02-11T06:58:44;0.60;99.90
32839;DHT22;19182;41.820;12.808;2023-02-11T07:01:14;0.50;99.90
32839;DHT22;19182;41.820;12.808;2023-02-11T07:03:41;0.60;99.90
32839;DHT22;19182;41.820;12.808;2023-02-11T07:06:16;0.80;99.90
32839;DHT22;19182;41.820;12.808;2023-02-11T07:08:42;0.80;99.90
32839;DHT22;19182;41.820;12.808;2023-02-11T07:11:19;2.00;99.90
32839;DHT22;19182;41.820;12.808;2023-02-11T07:13:48;2.00;99.90
32839;DHT22;19182;41.820;12.808;2023-02-11T07:16:16;3.30;99.90
32839;DHT22;19182;41.820;12.808;2023-02-11T07:18:42;4.10;99.90
32839;DHT22;19182;41.820;12.808;2023-02-11T07:21:11;5.10;99.90
32839;DHT22;19182;41.820;12.808;2023-02-11T07:23:37;6.10;99.90
32839;DHT22;19182;41.820;12.808;2023-02-11T07:26:07;6.90;99.90
32839;DHT22;19182;41.820;12.808;2023-02-11T07:28:34;7.80;99.90
32839;DHT22;19182;41.820;12.808;2023-02-11T07:31:09;8.50;99.90
32839;DHT22;19182;41.820;12.808;2023-02-11T07:33:37;9.10;99.90
32839;DHT22;19182;41.820;12.808;2023-02-11T07:36:05;9.40;99.90
32839;DHT22;19182;41.820;12.808;2023-02-11T07:38:32;10.30;99.90
32839;DHT22;19182;41.820;12.808;2023-02-11T07:40:59;10.90;99.90
32839;DHT22;19182;41.820;12.808;2023-02-11T07:43:26;8.50;99.90
32839;DHT22;19182;41.820;12.808;2023-02-11T07:45:52;11.10;99.90
32839;DHT22;19182;41.820;12.808;2023-02-11T07:48:18;12.00;99.90
32839;DHT22;19182;41.820;12.808;2023-02-11T07:50:44;12.90;99.90
32839;DHT22;19182;41.820;12.808;2023-02-11T07:53:10;12.10;99.90
32839;DHT22;19182;41.820;12.808;2023-02-11T07:55:36;11.50;99.90
32839;DHT22;19182;41.820;12.808;2023-02-11T07:58:01;12.00;99.90
32839;DHT22;19182;41.820;12.808;2023-02-11T08:00:27;13.90;99.90
32839;DHT22;19182;41.820;12.808;2023-02-11T08:02:53;14.50;97.60
32839;DHT22;19182;41.820;12.808;2023-02-11T08:05:18;13.90;96.00
32839;DHT22;19182;41.820;12.808;2023-02-11T08:07:44;13.60;96.70
32839;DHT22;19182;41.820;12.808;2023-02-11T08:10:10;14.00;97.00
32839;DHT22;19182;41.820;12.808;2023-02-11T08:12:35;15.50;94.00
32839;DHT22;19182;41.820;12.808;2023-02-11T08:15:02;16.20;91.00
32839;DHT22;19182;41.820;12.808;2023-02-11T08:17:28;17.20;89.60
32839;DHT22;19182;41.820;12.808;2023-02-11T08:19:54;18.30;84.30
32839;DHT22;19182;41.820;12.808;2023-02-11T08:22:21;18.30;79.20
32839;DHT22;19182;41.820;12.808;2023-02-11T08:24:48;18.70;77.40
32839;DHT22;19182;41.820;12.808;2023-02-11T08:27:13;19.10;75.90
32839;DHT22;19182;41.820;12.808;2023-02-11T08:29:40;19.70;73.30
32839;DHT22;19182;41.820;12.808;2023-02-11T08:32:07;19.90;71.40
32839;DHT22;19182;41.820;12.808;2023-02-11T08:34:34;20.30;68.20
32839;DHT22;19182;41.820;12.808;2023-02-11T08:37:02;20.50;67.30
32839;DHT22;19182;41.820;12.808;2023-02-11T08:39:27;20.90;64.70
32839;DHT22;19182;41.820;12.808;2023-02-11T08:41:54;21.30;64.30
32839;DHT22;19182;41.820;12.808;2023-02-11T08:44:21;21.20;62.70
32839;DHT22;19182;41.820;12.808;2023-02-11T08:46:48;20.60;60.90
32839;DHT22;19182;41.820;12.808;2023-02-11T08:49:15;20.30;61.20
32839;DHT22;19182;41.820;12.808;2023-02-11T08:51:42;21.30;60.30
32839;DHT22;19182;41.820;12.808;2023-02-11T08:54:08;21.70;59.00
32839;DHT22;19182;41.820;12.808;2023-02-11T08:56:35;21.50;57.70
32839;DHT22;19182;41.820;12.808;2023-02-11T08:59:03;20.60;60.10
32839;DHT22;19182;41.820;12.808;2023-02-11T09:01:29;21.00;58.40
32839;DHT22;19182;41.820;12.808;2023-02-11T09:03:57;21.40;56.50
32839;DHT22;19182;41.820;12.808;2023-02-11T09:06:23;20.70;57.80
32839;DHT22;19182;41.820;12.808;2023-02-11T09:08:52;20.30;57.90
32839;DHT22;19182;41.820;12.808;2023-02-11T09:11:21;21.30;58.20
32839;DHT22;19182;41.820;12.808;2023-02-11T09:13:50;22.30;56.90
32839;DHT22;19182;41.820;12.808;2023-02-11T09:16:28;22.90;55.90
32839;DHT22;19182;41.820;12.808;2023-02-11T09:18:56;23.90;53.70
32839;DHT22;19182;41.820;12.808;2023-02-11T09:21:23;25.10;52.60
32839;DHT22;19182;41.820;12.808;2023-02-11T09:23:49;24.30;52.80
32839;DHT22;19182;41.820;12.808;2023-02-11T09:26:21;24.30;52.60
32839;DHT22;19182;41.820;12.808;2023-02-11T09:28:48;25.10;52.10
32839;DHT22;19182;41.820;12.808;2023-02-11T09:31:16;25.10;51.70
32839;DHT22;19182;41.820;12.808;2023-02-11T09:33:45;25.00;50.20
32839;DHT22;19182;41.820;12.808;2023-02-11T09:36:15;25.40;50.30
32839;DHT22;19182;41.820;12.808;2023-02-11T09:38:42;24.80;49.30
32839;DHT22;19182;41.820;12.808;2023-02-11T09:43:57;25.30;49.10
32839;DHT22;19182;41.820;12.808;2023-02-11T09:46:26;25.40;48.30
32839;DHT22;19182;41.820;12.808;2023-02-11T09:48:54;26.50;46.50
32839;DHT22;19182;41.820;12.808;2023-02-11T09:51:38;26.90;45.30
32839;DHT22;19182;41.820;12.808;2023-02-11T09:54:12;25.90;43.60
32839;DHT22;19182;41.820;12.808;2023-02-11T09:56:39;23.20;47.20
32839;DHT22;19182;41.820;12.808;2023-02-11T09:59:12;23.70;48.50
32839;DHT22;19182;41.820;12.808;2023-02-11T10:01:48;25.80;45.30
32839;DHT22;19182;41.820;12.808;2023-02-11T10:07:27;24.40;45.50
32839;DHT22;19182;41.820;12.808;2023-02-11T10:15:59;26.80;42.70
32839;DHT22;19182;41.820;12.808;2023-02-11T10:21:50;26.10;43.30
32839;DHT22;19182;41.820;12.808;2023-02-11T10:24:18;26.20;44.10
32839;DHT22;19182;41.820;12.808;2023-02-11T10:26:44;27.80;42.40
32839;DHT22;19182;41.820;12.808;2023-02-11T10:31:53;30.30;42.70
32839;DHT22;19182;41.820;12.808;2023-02-11T10:34:19;29.00;42.00
32839;DHT22;19182;41.820;12.808;2023-02-11T10:36:45;26.90;43.30
32839;DHT22;19182;41.820;12.808;2023-02-11T10:39:18;28.20;42.40
32839;DHT22;19182;41.820;12.808;2023-02-11T10:41:56;28.60;42.60
32839;DHT22;19182;41.820;12.808;2023-02-11T10:44:36;27.90;42.40
32839;DHT22;19182;41.820;12.808;2023-02-11T10:47:12;27.90;43.70
32839;DHT22;19182;41.820;12.808;2023-02-11T10:49:43;28.70;42.40
32839;DHT22;19182;41.820;12.808;2023-02-11T10:52:28;27.00;44.40
32839;DHT22;19182;41.820;12.808;2023-02-11T10:55:08;27.80;42.70
32839;DHT22;19182;41.820;12.808;2023-02-11T10:57:57;27.50;45.00
32839;DHT22;19182;41.820;12.808;2023-02-11T11:00:42;26.40;45.10
32839;DHT22;19182;41.820;12.808;2023-02-11T11:03:19;25.70;46.10
32839;DHT22;19182;41.820;12.808;2023-02-11T11:05:48;27.10;45.90
32839;DHT22;19182;41.820;12.808;2023-02-11T11:08:15;27.70;44.90
32839;DHT22;19182;41.820;12.808;2023-02-11T11:10:46;29.00;43.60
32839;DHT22;19182;41.820;12.808;2023-02-11T11:13:36;29.30;43.60
32839;DHT22;19182;41.820;12.808;2023-02-11T11:16:26;29.50;42.60
32839;DHT22;19182;41.820;12.808;2023-02-11T11:19:13;27.40;44.90
32839;DHT22;19182;41.820;12.808;2023-02-11T11:21:45;27.20;44.40
32839;DHT22;19182;41.820;12.808;2023-02-11T11:24:16;27.90;43.80
32839;DHT22;19182;41.820;12.808;2023-02-11T11:26:50;27.30;44.60
32839;DHT22;19182;41.820;12.808;2023-02-11T11:29:42;27.70;45.00
32839;DHT22;19182;41.820;12.808;2023-02-11T11:32:10;27.80;44.30
32839;DHT22;19182;41.820;12.808;2023-02-11T11:34:37;27.30;45.20
32839;DHT22;19182;41.820;12.808;2023-02-11T11:39:37;28.10;43.90
32839;DHT22;19182;41.820;12.808;2023-02-11T11:42:21;28.90;43.00
32839;DHT22;19182;41.820;12.808;2023-02-11T11:45:00;28.60;43.30
32839;DHT22;19182;41.820;12.808;2023-02-11T11:47:30;27.70;43.30
32839;DHT22;19182;41.820;12.808;2023-02-11T11:52:56;28.50;43.60
32839;DHT22;19182;41.820;12.808;2023-02-11T11:58:18;27.80;44.40
32839;DHT22;19182;41.820;12.808;2023-02-11T12:09:18;24.70;48.90
32839;DHT22;19182;41.820;12.808;2023-02-11T12:20:37;26.10;47.30
32839;DHT22;19182;41.820;12.808;2023-02-11T12:28:43;24.10;47.00
32839;DHT22;19182;41.820;12.808;2023-02-11T12:33:54;22.30;49.70
32839;DHT22;19182;41.820;12.808;2023-02-11T12:52:54;19.50;54.20
32839;DHT22;19182;41.820;12.808;2023-02-11T12:55:32;19.30;55.10
32839;DHT22;19182;41.820;12.808;2023-02-11T12:58:04;18.90;55.40
32839;DHT22;19182;41.820;12.808;2023-02-11T13:03:25;19.40;55.40
32839;DHT22;19182;41.820;12.808;2023-02-11T13:05:56;19.60;54.80
32839;DHT22;19182;41.820;12.808;2023-02-11T13:08:37;20.20;54.30
32839;DHT22;19182;41.820;12.808;2023-02-11T13:11:22;20.80;53.70
32839;DHT22;19182;41.820;12.808;2023-02-11T13:16:43;19.70;54.70
32839;DHT22;19182;41.820;12.808;2023-02-11T13:24:50;18.80;55.60
32839;DHT22;19182;41.820;12.808;2023-02-11T13:30:31;18.80;56.00
32839;DHT22;19182;41.820;12.808;2023-02-11T13:35:34;17.70;57.80
32839;DHT22;19182;41.820;12.808;2023-02-11T13:40:44;16.60;60.80
32839;DHT22;19182;41.820;12.808;2023-02-11T13:43:24;16.10;62.00
32839;DHT22;19182;41.820;12.808;2023-02-11T13:46:01;15.80;62.60
32839;DHT22;19182;41.820;12.808;2023-02-11T13:48:33;15.30;64.30
32839;DHT22;19182;41.820;12.808;2023-02-11T13:51:08;15.20;64.60
32839;DHT22;19182;41.820;12.808;2023-02-11T13:53:50;15.10;64.00
32839;DHT22;19182;41.820;12.808;2023-02-11T13:56:37;15.00;64.90
32839;DHT22;19182;41.820;12.808;2023-02-11T14:08:24;14.50;65.20
32839;DHT22;19182;41.820;12.808;2023-02-11T14:16:22;14.20;65.40
32839;DHT22;19182;41.820;12.808;2023-02-11T14:21:30;14.10;65.00
32839;DHT22;19182;41.820;12.808;2023-02-11T14:27:04;13.70;65.10
32839;DHT22;19182;41.820;12.808;2023-02-11T14:29:42;13.70;65.10
32839;DHT22;19182;41.820;12.808;2023-02-11T14:35:11;13.40;66.20
32839;DHT22;19182;41.820;12.808;2023-02-11T14:41:22;13.10;66.60
32839;DHT22;19182;41.820;12.808;2023-02-11T14:43:35;13.00;66.80
32839;DHT22;19182;41.820;12.808;2023-02-11T14:46:02;12.80;68.40
32839;DHT22;19182;41.820;12.808;2023-02-11T14:48:32;12.70;68.90
32839;DHT22;19182;41.820;12.808;2023-02-11T14:53:46;12.60;69.80
32839;DHT22;19182;41.820;12.808;2023-02-11T14:56:22;12.60;70.50
32839;DHT22;19182;41.820;12.808;2023-02-11T14:58:53;12.50;71.00
32839;DHT22;19182;41.820;12.808;2023-02-11T15:01:34;12.40;71.90
32839;DHT22;19182;41.820;12.808;2023-02-11T15:04:04;12.30;73.40
32839;DHT22;19182;41.820;12.808;2023-02-11T15:06:33;12.10;73.40
32839;DHT22;19182;41.820;12.808;2023-02-11T15:09:16;12.00;74.30
32839;DHT22;19182;41.820;12.808;2023-02-11T15:11:46;11.90;75.00
32839;DHT22;19182;41.820;12.808;2023-02-11T15:14:21;11.90;75.00
32839;DHT22;19182;41.820;12.808;2023-02-11T15:16:51;11.80;76.10
32839;DHT22;19182;41.820;12.808;2023-02-11T15:19:24;11.70;77.00
32839;DHT22;19182;41.820;12.808;2023-02-11T15:21:53;11.60;76.80
32839;DHT22;19182;41.820;12.808;2023-02-11T15:24:24;11.60;77.40
32839;DHT22;19182;41.820;12.808;2023-02-11T15:27:00;11.70;78.10
32839;DHT22;19182;41.820;12.808;2023-02-11T15:29:32;11.60;78.30
32839;DHT22;19182;41.820;12.808;2023-02-11T15:32:03;11.60;79.50
32839;DHT22;19182;41.820;12.808;2023-02-11T15:34:30;11.60;80.10
32839;DHT22;19182;41.820;12.808;2023-02-11T15:36:57;11.60;81.00
32839;DHT22;19182;41.820;12.808;2023-02-11T15:39:40;11.50;81.60
32839;DHT22;19182;41.820;12.808;2023-02-11T15:44:49;11.20;83.80
32839;DHT22;19182;41.820;12.808;2023-02-11T15:47:31;11.10;84.80
32839;DHT22;19182;41.820;12.808;2023-02-11T15:49:58;11.00;87.30
32839;DHT22;19182;41.820;12.808;2023-02-11T15:52:25;10.90;88.30
32839;DHT22;19182;41.820;12.808;2023-02-11T15:54:53;10.80;89.50
32839;DHT22;19182;41.820;12.808;2023-02-11T15:57:21;10.60;90.90
32839;DHT22;19182;41.820;12.808;2023-02-11T15:59:51;10.50;91.50
32839;DHT22;19182;41.820;12.808;2023-02-11T16:02:18;10.50;92.80
32839;DHT22;19182;41.820;12.808;2023-02-11T16:04:53;10.30;93.60
32839;DHT22;19182;41.820;12.808;2023-02-11T16:12:53;10.00;97.80
32839;DHT22;19182;41.820;12.808;2023-02-11T16:18:25;9.80;99.90
32839;DHT22;19182;41.820;12.808;2023-02-11T16:20:52;9.60;99.90
32839;DHT22;19182;41.820;12.808;2023-02-11T16:23:37;9.40;99.90
32839;DHT22;19182;41.820;12.808;2023-02-11T16:26:09;9.30;99.90
32839;DHT22;19182;41.820;12.808;2023-02-11T16:28:38;9.10;99.90
32839;DHT22;19182;41.820;12.808;2023-02-11T16:31:04;9.00;99.90
32839;DHT22;19182;41.820;12.808;2023-02-11T16:33:31;8.70;99.90
32839;DHT22;19182;41.820;12.808;2023-02-11T16:35:58;8.30;99.90
32839;DHT22;19182;41.820;12.808;2023-02-11T16:38:28;8.00;99.90
32839;DHT22;19182;41.820;12.808;2023-02-11T16:40:55;7.50;99.90
32839;DHT22;19182;41.820;12.808;2023-02-11T16:43:22;7.30;99.90
32839;DHT22;19182;41.820;12.808;2023-02-11T16:45:49;7.30;99.90
32839;DHT22;19182;41.820;12.808;2023-02-11T16:48:18;7.20;99.90
32839;DHT22;19182;41.820;12.808;2023-02-11T16:50:47;7.10;99.90
32839;DHT22;19182;41.820;12.808;2023-02-11T16:53:17;6.90;99.90
32839;DHT22;19182;41.820;12.808;2023-02-11T16:55:44;6.80;99.90
32839;DHT22;19182;41.820;12.808;2023-02-11T16:58:09;6.60;99.90
32839;DHT22;19182;41.820;12.808;2023-02-11T17:00:37;6.40;99.90
32839;DHT22;19182;41.820;12.808;2023-02-11T17:03:07;6.40;99.90
32839;DHT22;19182;41.820;12.808;2023-02-11T17:05:34;6.20;99.90
32839;DHT22;19182;41.820;12.808;2023-02-11T17:08:02;6.20;99.90
32839;DHT22;19182;41.820;12.808;2023-02-11T17:10:28;6.10;99.90
32839;DHT22;19182;41.820;12.808;2023-02-11T17:12:55;6.00;99.90
32839;DHT22;19182;41.820;12.808;2023-02-11T17:15:20;6.00;99.90
32839;DHT22;19182;41.820;12.808;2023-02-11T17:17:46;5.80;99.90
32839;DHT22;19182;41.820;12.808;2023-02-11T17:20:13;5.80;99.90
32839;DHT22;19182;41.820;12.808;2023-02-11T17:22:39;5.90;99.90
32839;DHT22;19182;41.820;12.808;2023-02-11T17:25:05;5.90;99.90
32839;DHT22;19182;41.820;12.808;2023-02-11T17:27:31;5.80;99.90
32839;DHT22;19182;41.820;12.808;2023-02-11T17:29:57;5.80;99.90
32839;DHT22;19182;41.820;12.808;2023-02-11T17:32:22;5.80;99.90
32839;DHT22;19182;41.820;12.808;2023-02-11T17:34:48;5.90;99.90
32839;DHT22;19182;41.820;12.808;2023-02-11T17:37:17;5.90;99.90
32839;DHT22;19182;41.820;12.808;2023-02-11T17:39:44;6.00;99.90
32839;DHT22;19182;41.820;12.808;2023-02-11T17:42:10;6.00;99.90
32839;DHT22;19182;41.820;12.808;2023-02-11T17:44:36;6.00;99.90
32839;DHT22;19182;41.820;12.808;2023-02-11T17:47:03;6.00;99.90
32839;DHT22;19182;41.820;12.808;2023-02-11T17:49:29;6.00;99.90
32839;DHT22;19182;41.820;12.808;2023-02-11T17:51:55;6.00;99.90
32839;DHT22;19182;41.820;12.808;2023-02-11T17:54:21;6.00;99.90
32839;DHT22;19182;41.820;12.808;2023-02-11T17:56:50;6.10;99.90
32839;DHT22;19182;41.820;12.808;2023-02-11T17:59:18;6.00;99.90
32839;DHT22;19182;41.820;12.808;2023-02-11T18:01:44;6.00;99.90
32839;DHT22;19182;41.820;12.808;2023-02-11T18:04:13;5.90;99.90
32839;DHT22;19182;41.820;12.808;2023-02-11T18:06:39;5.90;99.90
32839;DHT22;19182;41.820;12.808;2023-02-11T18:09:04;5.90;99.90
32839;DHT22;19182;41.820;12.808;2023-02-11T18:11:35;5.80;99.90
32839;DHT22;19182;41.820;12.808;2023-02-11T18:14:02;5.80;99.90
32839;DHT22;19182;41.820;12.808;2023-02-11T18:16:29;5.70;99.90
32839;DHT22;19182;41.820;12.808;2023-02-11T18:18:57;5.60;99.90
32839;DHT22;19182;41.820;12.808;2023-02-11T18:21:23;5.60;99.90
32839;DHT22;19182;41.820;12.808;2023-02-11T18:23:49;5.60;99.90
32839;DHT22;19182;41.820;12.808;2023-02-11T18:26:18;5.50;99.90
32839;DHT22;19182;41.820;12.808;2023-02-11T18:28:44;5.50;99.90
32839;DHT22;19182;41.820;12.808;2023-02-11T18:31:10;5.50;99.90
32839;DHT22;19182;41.820;12.808;2023-02-11T18:33:39;5.40;99.90
32839;DHT22;19182;41.820;12.808;2023-02-11T18:36:07;5.40;99.90
32839;DHT22;19182;41.820;12.808;2023-02-11T18:38:33;5.20;99.90
32839;DHT22;19182;41.820;12.808;2023-02-11T18:41:00;3.70;99.90
32839;DHT22;19182;41.820;12.808;2023-02-11T18:43:26;4.80;99.90
32839;DHT22;19182;41.820;12.808;2023-02-11T18:45:56;4.60;99.90
32839;DHT22;19182;41.820;12.808;2023-02-11T18:48:23;4.40;99.90
32839;DHT22;19182;41.820;12.808;2023-02-11T18:50:51;4.20;99.90
32839;DHT22;19182;41.820;12.808;2023-02-11T18:53:18;4.00;99.90
32839;DHT22;19182;41.820;12.808;2023-02-11T18:55:47;3.90;99.90
32839;DHT22;19182;41.820;12.808;2023-02-11T18:58:14;3.70;99.90
32839;DHT22;19182;41.820;12.808;2023-02-11T19:00:43;3.60;99.90
32839;DHT22;19182;41.820;12.808;2023-02-11T19:03:10;3.40;99.90
32839;DHT22;19182;41.820;12.808;2023-02-11T19:05:43;3.30;99.90
32839;DHT22;19182;41.820;12.808;2023-02-11T19:08:10;3.40;99.90
32839;DHT22;19182;41.820;12.808;2023-02-11T19:10:40;3.30;99.90
32839;DHT22;19182;41.820;12.808;2023-02-11T19:13:07;3.20;99.90
32839;DHT22;19182;41.820;12.808;2023-02-11T19:15:33;3.10;99.90
32839;DHT22;19182;41.820;12.808;2023-02-11T19:17:59;3.20;99.90
32839;DHT22;19182;41.820;12.808;2023-02-11T19:20:25;3.10;99.90
32839;DHT22;19182;41.820;12.808;2023-02-11T19:22:51;3.10;99.90
32839;DHT22;19182;41.820;12.808;2023-02-11T19:25:17;3.20;99.90